sensor_id;sensor_type;location;lat;lon;timestamp;temperature;humidity
9179;DHT22;4624;48.126;11.546;2022-12-29T00:02:14;5.10;92.50
9179;DHT22;4624;48.126;11.546;2022-12-29T00:04:41;5.10;92.50
9179;DHT22;4624;48.126;11.546;2022-12-29T00:07:10;5.10;92.40
9179;DHT22;4624;48.126;11.546;2022-12-29T00:09:37;5.10;92.30
9179;DHT22;4624;48.126;11.546;2022-12-29T00:12:04;5.10;92.30
9179;DHT22;4624;48.126;11.546;2022-12-29T00:14:31;5.10;92.40
9179;DHT22;4624;48.126;11.546;2022-12-29T00:17:15;5.10;92.10
9179;DHT22;4624;48.126;11.546;2022-12-29T00:19:42;5.20;92.10
9179;DHT22;4624;48.126;11.546;2022-12-29T00:22:28;5.10;92.00
9179;DHT22;4624;48.126;11.546;2022-12-29T00:25:13;5.20;91.90
9179;DHT22;4624;48.126;11.546;2022-12-29T00:27:57;5.20;91.70
9179;DHT22;4624;48.126;11.546;2022-12-29T00:30:41;5.20;91.70
9179;DHT22;4624;48.126;11.546;2022-12-29T00:33:28;5.20;91.50
9179;DHT22;4624;48.126;11.546;2022-12-29T00:36:15;5.20;91.40
9179;DHT22;4624;48.126;11.546;2022-12-29T00:38:47;5.20;91.50
9179;DHT22;4624;48.126;11.546;2022-12-29T00:41:33;5.20;91.40
9179;DHT22;4624;48.126;11.546;2022-12-29T00:44:17;5.20;91.40
9179;DHT22;4624;48.126;11.546;2022-12-29T00:46:44;5.20;91.10
9179;DHT22;4624;48.126;11.546;2022-12-29T00:49:13;5.20;91.10
9179;DHT22;4624;48.126;11.546;2022-12-29T00:52:00;5.20;91.00
9179;DHT22;4624;48.126;11.546;2022-12-29T00:54:29;5.20;91.10
9179;DHT22;4624;48.126;11.546;2022-12-29T00:56:56;5.20;90.90
9179;DHT22;4624;48.126;11.546;2022-12-29T00:59:23;5.10;90.90
9179;DHT22;4624;48.126;11.546;2022-12-29T01:01:51;5.10;90.80
9179;DHT22;4624;48.126;11.546;2022-12-29T01:04:19;5.10;90.80
9179;DHT22;4624;48.126;11.546;2022-12-29T01:06:45;5.10;90.90
9179;DHT22;4624;48.126;11.546;2022-12-29T01:09:12;5.20;90.80
9179;DHT22;4624;48.126;11.546;2022-12-29T01:11:59;5.10;90.80
9179;DHT22;4624;48.126;11.546;2022-12-29T01:14:26;5.10;90.70
9179;DHT22;4624;48.126;11.546;2022-12-29T01:16:54;5.10;90.70
9179;DHT22;4624;48.126;11.546;2022-12-29T01:19:21;5.10;90.70
9179;DHT22;4624;48.126;11.546;2022-12-29T01:21:48;5.10;90.70
9179;DHT22;4624;48.126;11.546;2022-12-29T01:24:16;5.10;90.70
9179;DHT22;4624;48.126;11.546;2022-12-29T01:26:43;5.00;90.60
9179;DHT22;4624;48.126;11.546;2022-12-29T01:29:11;5.00;90.60
9179;DHT22;4624;48.126;11.546;2022-12-29T01:31:38;5.00;90.50
9179;DHT22;4624;48.126;11.546;2022-12-29T01:34:05;5.10;90.50
9179;DHT22;4624;48.126;11.546;2022-12-29T01:36:32;5.10;90.50
9179;DHT22;4624;48.126;11.546;2022-12-29T01:38:59;5.10;90.50
9179;DHT22;4624;48.126;11.546;2022-12-29T01:41:26;5.10;90.40
9179;DHT22;4624;48.126;11.546;2022-12-29T01:43:54;5.10;90.40
9179;DHT22;4624;48.126;11.546;2022-12-29T01:46:26;5.10;90.40
9179;DHT22;4624;48.126;11.546;2022-12-29T01:48:58;5.10;90.40
9179;DHT22;4624;48.126;11.546;2022-12-29T01:51:26;5.10;90.40
9179;DHT22;4624;48.126;11.546;2022-12-29T01:53:56;5.20;90.40
9179;DHT22;4624;48.126;11.546;2022-12-29T01:56:24;5.20;90.30
9179;DHT22;4624;48.126;11.546;2022-12-29T01:58:55;5.20;90.20
9179;DHT22;4624;48.126;11.546;2022-12-29T02:01:24;5.20;90.20
9179;DHT22;4624;48.126;11.546;2022-12-29T02:03:51;5.20;90.20
9179;DHT22;4624;48.126;11.546;2022-12-29T02:06:21;5.20;90.10
9179;DHT22;4624;48.126;11.546;2022-12-29T02:08:50;5.20;90.10
9179;DHT22;4624;48.126;11.546;2022-12-29T02:11:17;5.20;90.10
9179;DHT22;4624;48.126;11.546;2022-12-29T02:13:44;5.20;90.00
9179;DHT22;4624;48.126;11.546;2022-12-29T02:16:23;5.20;89.80
9179;DHT22;4624;48.126;11.546;2022-12-29T02:19:03;5.20;89.90
9179;DHT22;4624;48.126;11.546;2022-12-29T02:22:02;5.20;89.70
9179;DHT22;4624;48.126;11.546;2022-12-29T02:27:44;5.20;89.70
9179;DHT22;4624;48.126;11.546;2022-12-29T02:30:30;5.20;89.60
9179;DHT22;4624;48.126;11.546;2022-12-29T02:33:03;5.20;89.40
9179;DHT22;4624;48.126;11.546;2022-12-29T02:35:35;5.20;89.00
9179;DHT22;4624;48.126;11.546;2022-12-29T02:38:12;5.20;88.90
9179;DHT22;4624;48.126;11.546;2022-12-29T02:40:43;5.30;89.00
9179;DHT22;4624;48.126;11.546;2022-12-29T02:43:21;5.30;89.00
9179;DHT22;4624;48.126;11.546;2022-12-29T02:45:56;5.30;88.60
9179;DHT22;4624;48.126;11.546;2022-12-29T02:48:29;5.40;88.30
9179;DHT22;4624;48.126;11.546;2022-12-29T02:51:00;5.40;88.00
9179;DHT22;4624;48.126;11.546;2022-12-29T02:53:29;5.40;87.80
9179;DHT22;4624;48.126;11.546;2022-12-29T02:56:15;5.50;87.70
9179;DHT22;4624;48.126;11.546;2022-12-29T02:58:42;5.40;87.50
9179;DHT22;4624;48.126;11.546;2022-12-29T03:01:22;5.40;87.40
9179;DHT22;4624;48.126;11.546;2022-12-29T03:04:12;5.50;87.40
9179;DHT22;4624;48.126;11.546;2022-12-29T03:06:49;5.50;87.10
9179;DHT22;4624;48.126;11.546;2022-12-29T03:09:25;5.50;87.30
9179;DHT22;4624;48.126;11.546;2022-12-29T03:11:58;5.50;87.10
9179;DHT22;4624;48.126;11.546;2022-12-29T03:14:44;5.50;87.20
9179;DHT22;4624;48.126;11.546;2022-12-29T03:17:38;5.60;87.10
9179;DHT22;4624;48.126;11.546;2022-12-29T03:20:08;5.60;86.80
9179;DHT22;4624;48.126;11.546;2022-12-29T03:22:39;5.60;86.80
9179;DHT22;4624;48.126;11.546;2022-12-29T03:25:11;5.70;86.80
9179;DHT22;4624;48.126;11.546;2022-12-29T03:27:42;5.70;86.40
9179;DHT22;4624;48.126;11.546;2022-12-29T03:30:10;5.80;86.30
9179;DHT22;4624;48.126;11.546;2022-12-29T03:32:42;5.80;85.90
9179;DHT22;4624;48.126;11.546;2022-12-29T03:35:12;5.80;85.60
9179;DHT22;4624;48.126;11.546;2022-12-29T03:37:41;5.90;85.40
9179;DHT22;4624;48.126;11.546;2022-12-29T03:40:09;5.90;85.10
9179;DHT22;4624;48.126;11.546;2022-12-29T03:42:37;5.90;84.60
9179;DHT22;4624;48.126;11.546;2022-12-29T03:45:06;6.00;84.70
9179;DHT22;4624;48.126;11.546;2022-12-29T03:47:33;6.00;84.70
9179;DHT22;4624;48.126;11.546;2022-12-29T03:50:02;6.00;84.40
9179;DHT22;4624;48.126;11.546;2022-12-29T03:52:28;6.00;84.40
9179;DHT22;4624;48.126;11.546;2022-12-29T03:54:55;6.00;84.10
9179;DHT22;4624;48.126;11.546;2022-12-29T03:57:22;6.10;84.20
9179;DHT22;4624;48.126;11.546;2022-12-29T03:59:49;6.10;84.00
9179;DHT22;4624;48.126;11.546;2022-12-29T04:02:15;6.10;83.80
9179;DHT22;4624;48.126;11.546;2022-12-29T04:04:42;6.10;83.80
9179;DHT22;4624;48.126;11.546;2022-12-29T04:07:10;6.10;83.70
9179;DHT22;4624;48.126;11.546;2022-12-29T04:09:37;6.20;83.70
9179;DHT22;4624;48.126;11.546;2022-12-29T04:12:04;6.20;83.40
9179;DHT22;4624;48.126;11.546;2022-12-29T04:14:31;6.20;83.20
9179;DHT22;4624;48.126;11.546;2022-12-29T04:16:57;6.20;83.30
9179;DHT22;4624;48.126;11.546;2022-12-29T04:19:24;6.20;83.40
9179;DHT22;4624;48.126;11.546;2022-12-29T04:21:51;6.20;83.30
9179;DHT22;4624;48.126;11.546;2022-12-29T04:24:19;6.20;83.30
9179;DHT22;4624;48.126;11.546;2022-12-29T04:26:46;6.20;83.20
9179;DHT22;4624;48.126;11.546;2022-12-29T04:29:12;6.20;83.00
9179;DHT22;4624;48.126;11.546;2022-12-29T04:31:39;6.20;82.80
9179;DHT22;4624;48.126;11.546;2022-12-29T04:34:06;6.20;82.70
9179;DHT22;4624;48.126;11.546;2022-12-29T04:36:33;6.30;82.70
9179;DHT22;4624;48.126;11.546;2022-12-29T04:38:59;6.30;82.60
9179;DHT22;4624;48.126;11.546;2022-12-29T04:41:27;6.30;82.50
9179;DHT22;4624;48.126;11.546;2022-12-29T04:43:54;6.30;82.60
9179;DHT22;4624;48.126;11.546;2022-12-29T04:46:21;6.30;82.40
9179;DHT22;4624;48.126;11.546;2022-12-29T04:48:48;6.30;82.20
9179;DHT22;4624;48.126;11.546;2022-12-29T04:51:14;6.30;82.40
9179;DHT22;4624;48.126;11.546;2022-12-29T04:53:41;6.30;82.30
9179;DHT22;4624;48.126;11.546;2022-12-29T04:56:08;6.30;82.40
9179;DHT22;4624;48.126;11.546;2022-12-29T04:58:36;6.30;82.20
9179;DHT22;4624;48.126;11.546;2022-12-29T05:01:03;6.30;81.90
9179;DHT22;4624;48.126;11.546;2022-12-29T05:03:30;6.40;82.00
9179;DHT22;4624;48.126;11.546;2022-12-29T05:05:57;6.40;81.90
9179;DHT22;4624;48.126;11.546;2022-12-29T05:08:24;6.40;81.80
9179;DHT22;4624;48.126;11.546;2022-12-29T05:10:51;6.40;82.00
9179;DHT22;4624;48.126;11.546;2022-12-29T05:13:18;6.40;81.80
9179;DHT22;4624;48.126;11.546;2022-12-29T05:15:49;6.40;81.70
9179;DHT22;4624;48.126;11.546;2022-12-29T05:18:16;6.40;81.80
9179;DHT22;4624;48.126;11.546;2022-12-29T05:20:44;6.50;81.60
9179;DHT22;4624;48.126;11.546;2022-12-29T05:23:10;6.50;81.40
9179;DHT22;4624;48.126;11.546;2022-12-29T05:25:37;6.50;81.30
9179;DHT22;4624;48.126;11.546;2022-12-29T05:28:04;6.50;81.00
9179;DHT22;4624;48.126;11.546;2022-12-29T05:30:31;6.50;81.20
9179;DHT22;4624;48.126;11.546;2022-12-29T05:32:59;6.50;81.10
9179;DHT22;4624;48.126;11.546;2022-12-29T05:35:26;6.50;80.80
9179;DHT22;4624;48.126;11.546;2022-12-29T05:37:53;6.50;80.90
9179;DHT22;4624;48.126;11.546;2022-12-29T05:40:20;6.50;81.00
9179;DHT22;4624;48.126;11.546;2022-12-29T05:42:46;6.50;80.80
9179;DHT22;4624;48.126;11.546;2022-12-29T05:45:13;6.50;80.90
9179;DHT22;4624;48.126;11.546;2022-12-29T05:47:40;6.60;81.00
9179;DHT22;4624;48.126;11.546;2022-12-29T05:50:08;6.60;81.10
9179;DHT22;4624;48.126;11.546;2022-12-29T05:52:35;6.60;81.10
9179;DHT22;4624;48.126;11.546;2022-12-29T05:55:01;6.60;81.10
9179;DHT22;4624;48.126;11.546;2022-12-29T05:57:28;6.50;80.90
9179;DHT22;4624;48.126;11.546;2022-12-29T05:59:55;6.60;81.00
9179;DHT22;4624;48.126;11.546;2022-12-29T06:02:22;6.60;81.10
9179;DHT22;4624;48.126;11.546;2022-12-29T06:04:48;6.60;81.20
9179;DHT22;4624;48.126;11.546;2022-12-29T06:07:16;6.60;81.20
9179;DHT22;4624;48.126;11.546;2022-12-29T06:09:43;6.60;81.40
9179;DHT22;4624;48.126;11.546;2022-12-29T06:12:10;6.60;81.40
9179;DHT22;4624;48.126;11.546;2022-12-29T06:14:36;6.50;81.20
9179;DHT22;4624;48.126;11.546;2022-12-29T06:17:03;6.50;81.50
9179;DHT22;4624;48.126;11.546;2022-12-29T06:19:30;6.50;81.50
9179;DHT22;4624;48.126;11.546;2022-12-29T06:21:57;6.50;81.60
9179;DHT22;4624;48.126;11.546;2022-12-29T06:24:25;6.50;82.10
9179;DHT22;4624;48.126;11.546;2022-12-29T06:26:51;6.50;82.20
9179;DHT22;4624;48.126;11.546;2022-12-29T06:29:18;6.40;82.10
9179;DHT22;4624;48.126;11.546;2022-12-29T06:31:46;6.40;82.00
9179;DHT22;4624;48.126;11.546;2022-12-29T06:34:14;6.40;82.00
9179;DHT22;4624;48.126;11.546;2022-12-29T06:36:41;6.40;82.10
9179;DHT22;4624;48.126;11.546;2022-12-29T06:39:07;6.40;82.20
9179;DHT22;4624;48.126;11.546;2022-12-29T06:41:35;6.40;82.10
9179;DHT22;4624;48.126;11.546;2022-12-29T06:44:03;6.40;82.10
9179;DHT22;4624;48.126;11.546;2022-12-29T06:46:30;6.40;82.20
9179;DHT22;4624;48.126;11.546;2022-12-29T06:48:56;6.40;82.30
9179;DHT22;4624;48.126;11.546;2022-12-29T06:51:23;6.40;82.20
9179;DHT22;4624;48.126;11.546;2022-12-29T06:53:50;6.30;82.10
9179;DHT22;4624;48.126;11.546;2022-12-29T06:56:16;6.30;81.90
9179;DHT22;4624;48.126;11.546;2022-12-29T06:58:44;6.40;82.30
9179;DHT22;4624;48.126;11.546;2022-12-29T07:01:11;6.40;82.20
9179;DHT22;4624;48.126;11.546;2022-12-29T07:03:38;6.40;82.50
9179;DHT22;4624;48.126;11.546;2022-12-29T07:06:07;6.40;82.60
9179;DHT22;4624;48.126;11.546;2022-12-29T07:08:34;6.40;82.30
9179;DHT22;4624;48.126;11.546;2022-12-29T07:11:00;6.40;82.10
9179;DHT22;4624;48.126;11.546;2022-12-29T07:13:28;6.40;82.00
9179;DHT22;4624;48.126;11.546;2022-12-29T07:15:56;6.40;81.90
9179;DHT22;4624;48.126;11.546;2022-12-29T07:18:23;6.40;81.90
9179;DHT22;4624;48.126;11.546;2022-12-29T07:20:50;6.40;81.90
9179;DHT22;4624;48.126;11.546;2022-12-29T07:23:16;6.40;82.00
9179;DHT22;4624;48.126;11.546;2022-12-29T07:25:43;6.40;81.90
9179;DHT22;4624;48.126;11.546;2022-12-29T07:28:10;6.50;82.00
9179;DHT22;4624;48.126;11.546;2022-12-29T07:30:37;6.50;81.90
9179;DHT22;4624;48.126;11.546;2022-12-29T07:33:05;6.50;82.00
9179;DHT22;4624;48.126;11.546;2022-12-29T07:35:33;6.50;81.80
9179;DHT22;4624;48.126;11.546;2022-12-29T07:38:00;6.50;81.80
9179;DHT22;4624;48.126;11.546;2022-12-29T07:40:26;6.50;81.80
9179;DHT22;4624;48.126;11.546;2022-12-29T07:42:53;6.60;81.90
9179;DHT22;4624;48.126;11.546;2022-12-29T07:45:20;6.60;81.70
9179;DHT22;4624;48.126;11.546;2022-12-29T07:47:48;6.60;81.60
9179;DHT22;4624;48.126;11.546;2022-12-29T07:50:16;6.70;81.60
9179;DHT22;4624;48.126;11.546;2022-12-29T07:52:42;6.70;81.00
9179;DHT22;4624;48.126;11.546;2022-12-29T07:55:10;6.70;80.80
9179;DHT22;4624;48.126;11.546;2022-12-29T07:57:37;6.80;80.80
9179;DHT22;4624;48.126;11.546;2022-12-29T08:00:04;6.90;80.90
9179;DHT22;4624;48.126;11.546;2022-12-29T08:02:31;7.00;80.90
9179;DHT22;4624;48.126;11.546;2022-12-29T08:04:58;7.00;80.80
9179;DHT22;4624;48.126;11.546;2022-12-29T08:07:26;7.10;80.60
9179;DHT22;4624;48.126;11.546;2022-12-29T08:09:53;7.20;80.70
9179;DHT22;4624;48.126;11.546;2022-12-29T08:12:20;7.20;80.40
9179;DHT22;4624;48.126;11.546;2022-12-29T08:14:46;7.30;80.00
9179;DHT22;4624;48.126;11.546;2022-12-29T08:17:13;7.60;80.70
9179;DHT22;4624;48.126;11.546;2022-12-29T08:19:40;8.20;81.10
9179;DHT22;4624;48.126;11.546;2022-12-29T08:22:08;8.80;81.30
9179;DHT22;4624;48.126;11.546;2022-12-29T08:24:36;9.40;80.60
9179;DHT22;4624;48.126;11.546;2022-12-29T08:27:02;9.60;79.40
9179;DHT22;4624;48.126;11.546;2022-12-29T08:29:29;9.60;78.00
9179;DHT22;4624;48.126;11.546;2022-12-29T08:31:56;9.40;76.60
9179;DHT22;4624;48.126;11.546;2022-12-29T08:34:23;9.30;76.10
9179;DHT22;4624;48.126;11.546;2022-12-29T08:36:50;9.10;75.60
9179;DHT22;4624;48.126;11.546;2022-12-29T08:39:16;9.00;75.60
9179;DHT22;4624;48.126;11.546;2022-12-29T08:41:44;8.90;75.30
9179;DHT22;4624;48.126;11.546;2022-12-29T08:44:11;8.90;75.20
9179;DHT22;4624;48.126;11.546;2022-12-29T08:46:38;8.90;74.90
9179;DHT22;4624;48.126;11.546;2022-12-29T08:49:05;9.00;74.50
9179;DHT22;4624;48.126;11.546;2022-12-29T08:51:32;9.00;74.00
9179;DHT22;4624;48.126;11.546;2022-12-29T08:53:59;9.00;73.80
9179;DHT22;4624;48.126;11.546;2022-12-29T08:56:26;9.00;73.60
9179;DHT22;4624;48.126;11.546;2022-12-29T08:58:54;9.10;73.50
9179;DHT22;4624;48.126;11.546;2022-12-29T09:01:21;9.20;72.90
9179;DHT22;4624;48.126;11.546;2022-12-29T09:03:48;9.20;72.10
9179;DHT22;4624;48.126;11.546;2022-12-29T09:06:16;9.40;72.00
9179;DHT22;4624;48.126;11.546;2022-12-29T09:08:43;9.50;71.70
9179;DHT22;4624;48.126;11.546;2022-12-29T09:11:12;9.50;71.10
9179;DHT22;4624;48.126;11.546;2022-12-29T09:13:39;9.60;70.50
9179;DHT22;4624;48.126;11.546;2022-12-29T09:16:08;9.70;69.80
9179;DHT22;4624;48.126;11.546;2022-12-29T09:18:35;9.80;69.20
9179;DHT22;4624;48.126;11.546;2022-12-29T09:21:04;9.90;68.30
9179;DHT22;4624;48.126;11.546;2022-12-29T09:23:32;9.90;68.40
9179;DHT22;4624;48.126;11.546;2022-12-29T09:25:58;10.40;66.40
9179;DHT22;4624;48.126;11.546;2022-12-29T09:28:25;10.40;66.20
9179;DHT22;4624;48.126;11.546;2022-12-29T09:30:54;10.50;65.60
9179;DHT22;4624;48.126;11.546;2022-12-29T09:33:22;10.40;64.60
9179;DHT22;4624;48.126;11.546;2022-12-29T09:35:51;10.40;63.80
9179;DHT22;4624;48.126;11.546;2022-12-29T09:38:18;10.40;62.80
9179;DHT22;4624;48.126;11.546;2022-12-29T09:40:50;10.40;63.60
9179;DHT22;4624;48.126;11.546;2022-12-29T09:43:29;10.50;63.50
9179;DHT22;4624;48.126;11.546;2022-12-29T09:46:06;10.50;63.20
9179;DHT22;4624;48.126;11.546;2022-12-29T09:48:39;10.40;62.70
9179;DHT22;4624;48.126;11.546;2022-12-29T09:51:11;10.40;63.00
9179;DHT22;4624;48.126;11.546;2022-12-29T09:53:41;10.30;63.50
9179;DHT22;4624;48.126;11.546;2022-12-29T09:56:14;10.30;63.30
9179;DHT22;4624;48.126;11.546;2022-12-29T09:58:47;10.20;63.50
9179;DHT22;4624;48.126;11.546;2022-12-29T10:01:23;10.20;63.50
9179;DHT22;4624;48.126;11.546;2022-12-29T10:03:56;10.10;63.80
9179;DHT22;4624;48.126;11.546;2022-12-29T10:06:27;10.10;63.90
9179;DHT22;4624;48.126;11.546;2022-12-29T10:09:02;10.00;64.70
9179;DHT22;4624;48.126;11.546;2022-12-29T10:11:52;10.00;63.80
9179;DHT22;4624;48.126;11.546;2022-12-29T10:14:33;10.00;63.70
9179;DHT22;4624;48.126;11.546;2022-12-29T10:17:06;10.00;61.80
9179;DHT22;4624;48.126;11.546;2022-12-29T10:19:50;9.90;63.20
9179;DHT22;4624;48.126;11.546;2022-12-29T10:22:31;9.90;63.30
9179;DHT22;4624;48.126;11.546;2022-12-29T10:25:00;9.90;63.60
9179;DHT22;4624;48.126;11.546;2022-12-29T10:27:31;10.00;62.10
9179;DHT22;4624;48.126;11.546;2022-12-29T10:30:01;10.00;61.70
9179;DHT22;4624;48.126;11.546;2022-12-29T10:32:32;10.10;61.70
9179;DHT22;4624;48.126;11.546;2022-12-29T10:35:06;10.10;61.20
9179;DHT22;4624;48.126;11.546;2022-12-29T10:37:41;10.20;60.80
9179;DHT22;4624;48.126;11.546;2022-12-29T10:40:18;10.30;60.30
9179;DHT22;4624;48.126;11.546;2022-12-29T10:42:50;10.40;60.00
9179;DHT22;4624;48.126;11.546;2022-12-29T10:45:20;10.60;60.40
9179;DHT22;4624;48.126;11.546;2022-12-29T10:47:53;10.80;60.60
9179;DHT22;4624;48.126;11.546;2022-12-29T10:50:23;10.90;60.60
9179;DHT22;4624;48.126;11.546;2022-12-29T10:52:51;11.10;59.70
9179;DHT22;4624;48.126;11.546;2022-12-29T10:55:22;11.30;59.40
9179;DHT22;4624;48.126;11.546;2022-12-29T10:57:53;11.30;59.70
9179;DHT22;4624;48.126;11.546;2022-12-29T11:00:23;11.40;59.40
9179;DHT22;4624;48.126;11.546;2022-12-29T11:03:22;11.60;59.10
9179;DHT22;4624;48.126;11.546;2022-12-29T11:05:57;11.90;58.90
9179;DHT22;4624;48.126;11.546;2022-12-29T11:08:26;12.30;57.80
9179;DHT22;4624;48.126;11.546;2022-12-29T11:10:59;12.90;57.60
9179;DHT22;4624;48.126;11.546;2022-12-29T11:13:28;13.70;56.70
9179;DHT22;4624;48.126;11.546;2022-12-29T11:15:55;14.40;56.20
9179;DHT22;4624;48.126;11.546;2022-12-29T11:18:23;15.30;54.20
9179;DHT22;4624;48.126;11.546;2022-12-29T11:20:53;15.60;52.60
9179;DHT22;4624;48.126;11.546;2022-12-29T11:23:26;16.00;51.80
9179;DHT22;4624;48.126;11.546;2022-12-29T11:26:16;16.10;50.90
9179;DHT22;4624;48.126;11.546;2022-12-29T11:28:45;15.80;50.90
9179;DHT22;4624;48.126;11.546;2022-12-29T11:31:16;15.70;50.50
9179;DHT22;4624;48.126;11.546;2022-12-29T11:33:43;15.50;50.30
9179;DHT22;4624;48.126;11.546;2022-12-29T11:36:15;15.50;50.40
9179;DHT22;4624;48.126;11.546;2022-12-29T11:38:46;15.60;49.80
9179;DHT22;4624;48.126;11.546;2022-12-29T11:41:20;15.30;49.30
9179;DHT22;4624;48.126;11.546;2022-12-29T11:43:47;15.10;49.60
9179;DHT22;4624;48.126;11.546;2022-12-29T11:46:17;15.20;49.50
9179;DHT22;4624;48.126;11.546;2022-12-29T11:48:46;15.10;48.70
9179;DHT22;4624;48.126;11.546;2022-12-29T11:51:22;15.00;49.10
9179;DHT22;4624;48.126;11.546;2022-12-29T11:53:52;15.40;49.30
9179;DHT22;4624;48.126;11.546;2022-12-29T11:56:22;16.50;49.20
9179;DHT22;4624;48.126;11.546;2022-12-29T11:58:57;17.20;47.70
9179;DHT22;4624;48.126;11.546;2022-12-29T12:01:30;17.50;46.60
9179;DHT22;4624;48.126;11.546;2022-12-29T12:04:02;17.20;45.90
9179;DHT22;4624;48.126;11.546;2022-12-29T12:06:33;16.50;46.70
9179;DHT22;4624;48.126;11.546;2022-12-29T12:09:05;16.10;47.00
9179;DHT22;4624;48.126;11.546;2022-12-29T12:11:37;16.50;47.30
9179;DHT22;4624;48.126;11.546;2022-12-29T12:14:12;17.80;45.80
9179;DHT22;4624;48.126;11.546;2022-12-29T12:16:46;19.00;44.90
9179;DHT22;4624;48.126;11.546;2022-12-29T12:19:23;20.30;43.70
9179;DHT22;4624;48.126;11.546;2022-12-29T12:21:58;21.00;41.80
9179;DHT22;4624;48.126;11.546;2022-12-29T12:24:36;21.00;40.90
9179;DHT22;4624;48.126;11.546;2022-12-29T12:27:12;20.40;40.40
9179;DHT22;4624;48.126;11.546;2022-12-29T12:29:45;20.50;40.20
9179;DHT22;4624;48.126;11.546;2022-12-29T12:32:17;20.70;39.60
9179;DHT22;4624;48.126;11.546;2022-12-29T12:34:46;20.90;40.00
9179;DHT22;4624;48.126;11.546;2022-12-29T12:37:41;20.60;39.90
9179;DHT22;4624;48.126;11.546;2022-12-29T12:40:37;20.10;40.20
9179;DHT22;4624;48.126;11.546;2022-12-29T12:43:14;19.80;40.80
9179;DHT22;4624;48.126;11.546;2022-12-29T12:45:51;19.20;41.20
9179;DHT22;4624;48.126;11.546;2022-12-29T12:48:36;18.30;42.00
9179;DHT22;4624;48.126;11.546;2022-12-29T12:51:14;17.40;43.10
9179;DHT22;4624;48.126;11.546;2022-12-29T12:54:01;16.70;44.00
9179;DHT22;4624;48.126;11.546;2022-12-29T12:56:57;16.00;44.80
9179;DHT22;4624;48.126;11.546;2022-12-29T12:59:38;15.40;46.00
9179;DHT22;4624;48.126;11.546;2022-12-29T13:02:23;15.10;46.70
9179;DHT22;4624;48.126;11.546;2022-12-29T13:05:24;14.80;47.40
9179;DHT22;4624;48.126;11.546;2022-12-29T13:08:01;14.40;48.30
9179;DHT22;4624;48.126;11.546;2022-12-29T13:10:41;14.10;48.80
9179;DHT22;4624;48.126;11.546;2022-12-29T13:13:32;13.90;49.40
9179;DHT22;4624;48.126;11.546;2022-12-29T13:16:05;13.70;49.90
9179;DHT22;4624;48.126;11.546;2022-12-29T13:18:41;13.50;50.20
9179;DHT22;4624;48.126;11.546;2022-12-29T13:21:20;13.40;50.80
9179;DHT22;4624;48.126;11.546;2022-12-29T13:23:53;13.40;51.90
9179;DHT22;4624;48.126;11.546;2022-12-29T13:26:26;13.20;51.60
9179;DHT22;4624;48.126;11.546;2022-12-29T13:28:58;13.20;51.90
9179;DHT22;4624;48.126;11.546;2022-12-29T13:31:33;13.10;52.30
9179;DHT22;4624;48.126;11.546;2022-12-29T13:34:09;13.10;52.60
9179;DHT22;4624;48.126;11.546;2022-12-29T13:36:42;13.00;52.80
9179;DHT22;4624;48.126;11.546;2022-12-29T13:39:13;13.00;53.00
9179;DHT22;4624;48.126;11.546;2022-12-29T13:41:45;12.90;53.30
9179;DHT22;4624;48.126;11.546;2022-12-29T13:44:17;12.90;53.60
9179;DHT22;4624;48.126;11.546;2022-12-29T13:46:45;12.80;53.90
9179;DHT22;4624;48.126;11.546;2022-12-29T13:49:15;12.70;54.30
9179;DHT22;4624;48.126;11.546;2022-12-29T13:51:48;12.60;54.50
9179;DHT22;4624;48.126;11.546;2022-12-29T13:54:28;12.60;54.80
9179;DHT22;4624;48.126;11.546;2022-12-29T13:57:05;12.50;55.10
9179;DHT22;4624;48.126;11.546;2022-12-29T13:59:40;12.50;55.80
9179;DHT22;4624;48.126;11.546;2022-12-29T14:02:18;12.40;56.10
9179;DHT22;4624;48.126;11.546;2022-12-29T14:04:58;12.40;56.60
9179;DHT22;4624;48.126;11.546;2022-12-29T14:07:25;12.40;57.00
9179;DHT22;4624;48.126;11.546;2022-12-29T14:09:54;12.30;57.10
9179;DHT22;4624;48.126;11.546;2022-12-29T14:12:29;12.30;57.50
9179;DHT22;4624;48.126;11.546;2022-12-29T14:17:44;12.20;58.10
9179;DHT22;4624;48.126;11.546;2022-12-29T14:20:20;12.10;58.20
9179;DHT22;4624;48.126;11.546;2022-12-29T14:22:59;12.10;58.70
9179;DHT22;4624;48.126;11.546;2022-12-29T14:25:58;12.10;59.00
9179;DHT22;4624;48.126;11.546;2022-12-29T14:28:27;12.10;59.20
9179;DHT22;4624;48.126;11.546;2022-12-29T14:30:56;12.00;59.40
9179;DHT22;4624;48.126;11.546;2022-12-29T14:33:26;12.00;59.70
9179;DHT22;4624;48.126;11.546;2022-12-29T14:35:53;12.00;60.60
9179;DHT22;4624;48.126;11.546;2022-12-29T14:38:30;12.00;59.50
9179;DHT22;4624;48.126;11.546;2022-12-29T14:41:27;11.90;59.20
9179;DHT22;4624;48.126;11.546;2022-12-29T14:43:59;11.80;59.00
9179;DHT22;4624;48.126;11.546;2022-12-29T14:46:45;11.70;58.60
9179;DHT22;4624;48.126;11.546;2022-12-29T14:49:17;11.60;58.30
9179;DHT22;4624;48.126;11.546;2022-12-29T14:51:45;11.50;58.10
9179;DHT22;4624;48.126;11.546;2022-12-29T14:54:42;11.40;57.90
9179;DHT22;4624;48.126;11.546;2022-12-29T14:57:15;11.40;57.90
9179;DHT22;4624;48.126;11.546;2022-12-29T14:59:47;11.30;57.90
9179;DHT22;4624;48.126;11.546;2022-12-29T15:02:19;11.20;58.50
9179;DHT22;4624;48.126;11.546;2022-12-29T15:04:47;11.20;58.00
9179;DHT22;4624;48.126;11.546;2022-12-29T15:07:14;11.10;57.90
9179;DHT22;4624;48.126;11.546;2022-12-29T15:09:44;11.10;58.10
9179;DHT22;4624;48.126;11.546;2022-12-29T15:12:20;11.10;58.10
9179;DHT22;4624;48.126;11.546;2022-12-29T15:14:51;11.00;58.20
9179;DHT22;4624;48.126;11.546;2022-12-29T15:17:26;11.00;58.30
9179;DHT22;4624;48.126;11.546;2022-12-29T15:19:54;10.90;58.30
9179;DHT22;4624;48.126;11.546;2022-12-29T15:22:21;10.90;58.50
9179;DHT22;4624;48.126;11.546;2022-12-29T15:24:50;10.80;58.30
9179;DHT22;4624;48.126;11.546;2022-12-29T15:27:20;10.80;58.20
9179;DHT22;4624;48.126;11.546;2022-12-29T15:29:48;10.70;58.30
9179;DHT22;4624;48.126;11.546;2022-12-29T15:32:24;10.70;58.50
9179;DHT22;4624;48.126;11.546;2022-12-29T15:34:52;10.70;58.60
9179;DHT22;4624;48.126;11.546;2022-12-29T15:37:21;10.60;58.70
9179;DHT22;4624;48.126;11.546;2022-12-29T15:39:49;10.60;58.80
9179;DHT22;4624;48.126;11.546;2022-12-29T15:42:27;10.50;58.80
9179;DHT22;4624;48.126;11.546;2022-12-29T15:44:56;10.50;58.70
9179;DHT22;4624;48.126;11.546;2022-12-29T15:47:25;10.40;58.80
9179;DHT22;4624;48.126;11.546;2022-12-29T15:50:00;10.40;59.00
9179;DHT22;4624;48.126;11.546;2022-12-29T15:52:29;10.40;59.10
9179;DHT22;4624;48.126;11.546;2022-12-29T15:54:58;10.40;59.10
9179;DHT22;4624;48.126;11.546;2022-12-29T15:57:27;10.40;59.30
9179;DHT22;4624;48.126;11.546;2022-12-29T15:59:54;10.40;59.30
9179;DHT22;4624;48.126;11.546;2022-12-29T16:02:23;10.30;59.30
9179;DHT22;4624;48.126;11.546;2022-12-29T16:04:51;10.30;59.40
9179;DHT22;4624;48.126;11.546;2022-12-29T16:07:26;10.20;59.40
9179;DHT22;4624;48.126;11.546;2022-12-29T16:09:55;10.20;59.40
9179;DHT22;4624;48.126;11.546;2022-12-29T16:12:24;10.20;59.50
9179;DHT22;4624;48.126;11.546;2022-12-29T16:14:54;10.20;59.80
9179;DHT22;4624;48.126;11.546;2022-12-29T16:17:25;10.20;60.20
9179;DHT22;4624;48.126;11.546;2022-12-29T16:19:54;10.10;60.30
9179;DHT22;4624;48.126;11.546;2022-12-29T16:22:27;10.20;60.70
9179;DHT22;4624;48.126;11.546;2022-12-29T16:24:57;10.10;61.00
9179;DHT22;4624;48.126;11.546;2022-12-29T16:27:31;10.10;61.40